Windischgarsten, Austria
Current Conditions -  °F | °C
As of 7:50 PM on Friday 31 Oct 2014 (Local Time) from LOWL Reporting Station
Broken Clouds Broken Clouds  
Wind Chill: 46°   Ceiling: 30000
Heat Index: 46°   Visibility: 4mi
Dew Point: 45°   Wind: 3mph
Humidity: 93%   Direction: 290°WNW
Pressure: 30.33"   Gusts: NA
Location:  47.72°N, 14.33°E
Report Text: LOWL 311750Z 29003KT 7000 BKN300 08/07 Q1027 NOSIG
Loading
Personal Weather Stations






























Interactive Weather Map
Tropical Storm Tracking
New forecast layout! Learn more

10-Day Weather Forecast

Advertisements
Track Severe Weather on mobile